Time;durP1;ratioP1;P1;durP2;ratioP2;P2;SDS_P1;SDS_P2;PMS_P1;PMS_P2;Temp;Humidity;BMP_temperature;BMP_pressure;BME280_temperature;BME280_humidity;BME280_pressure;Samples;Min_cycle;Max_cycle;Signal;HPM_P1;HPM_P2
2021/12/08 00:14:51;;;;;;;;;;;;;;;;;;;;;
2021/12/08 00:20:48;;;;;;;;;125.20;124.00;;;;;;;;6246015;22;8724;-82
2021/12/08 00:26:41;;;;;;;;;;;;;;;;;;;;;
2021/12/08 00:32:25;;;;;;;;;;;;;;;;;;;;;
2021/12/08 00:35:00;;;;;;;;;135.40;135.00;;;;;;;;6349465;22;36399;-83
2021/12/08 00:37:33;;;;;;;;;131.40;129.20;;;;;;;;6351684;22;12395;-83
2021/12/08 00:39:59;;;;;;;;;132.20;132.00;;;;;;;;6348881;22;8790;-83
2021/12/08 00:45:29;;;;;;;;;;;;;;;;;;;;;
2021/12/08 00:48:46;;;;;;;;;;;;;;;;;;;;;
2021/12/08 00:57:42;;;;;;;;;72.60;60.20;;;;;;;;6076108;23;8899;-83
2021/12/08 01:09:37;;;;;;;;;90.60;81.60;;;;;;;;6271629;22;8719;-84
2021/12/08 01:12:50;;;;;;;;;;;;;;;;;;;;;
2021/12/08 01:15:44;;;;;;;;;;;;;;;;;;;;;
2021/12/08 01:18:15;;;;;;;;;75.60;63.00;;;;;;;;6343739;22;36287;-83
2021/12/08 01:20:48;;;;;;;;;85.00;71.00;;;;;;;;6352532;22;8714;-85
2021/12/08 01:23:13;;;;;;;;;81.20;67.60;;;;;;;;6353171;22;8725;-84
2021/12/08 01:25:39;;;;;;;;;82.75;67.75;;;;;;;;6352878;22;8759;-83
2021/12/08 01:28:04;;;;;;;;;93.00;83.75;;;;;;;;6352627;22;8737;-84
2021/12/08 01:30:32;;;;;;;;;79.75;65.50;;;;;;;;6352803;22;8756;-86
2021/12/08 01:32:58;;;;;;;;;83.20;70.00;;;;;;;;6352764;22;8842;-86
2021/12/08 01:35:23;;;;;;;;;85.75;72.75;;;;;;;;6350531;22;8772;-86
2021/12/08 01:37:51;;;;;;;;;84.25;70.00;;;;;;;;6352557;22;8776;-85
2021/12/08 01:40:17;;;;;;;;;85.20;72.40;;;;;;;;6352596;22;8725;-85
2021/12/08 01:42:47;;;;;;;;;78.80;64.60;;;;;;;;6351563;22;8846;-85
2021/12/08 01:46:05;;;;;;;;;79.60;65.60;;;;;;;;6376519;22;8740;-85
2021/12/08 01:48:10;;;;;;;;;95.60;88.00;;;;;;;;6345648;22;8737;-85
2021/12/08 01:50:51;;;;;;;;;;;;;;;;;;;;;
2021/12/08 01:53:17;;;;;;;;;91.60;80.00;;;;;;;;6350884;22;36077;-84
2021/12/08 01:55:43;;;;;;;;;88.67;77.00;;;;;;;;6352174;22;8752;-84
2021/12/08 01:58:11;;;;;;;;;84.20;70.00;;;;;;;;6352308;22;8784;-85
2021/12/08 02:00:41;;;;;;;;;91.60;81.00;;;;;;;;6351946;22;8721;-85
2021/12/08 02:03:06;;;;;;;;;86.40;73.40;;;;;;;;6352621;22;8729;-85
2021/12/08 02:05:32;;;;;;;;;89.75;79.50;;;;;;;;6352306;22;8859;-84
2021/12/08 02:08:00;;;;;;;;;91.00;81.50;;;;;;;;6351788;22;8818;-85
2021/12/08 02:10:28;;;;;;;;;83.80;69.40;;;;;;;;6349964;22;8745;-83
2021/12/08 02:12:54;;;;;;;;;80.60;66.60;;;;;;;;6350376;22;8744;-85
2021/12/08 02:15:24;;;;;;;;;71.25;58.50;;;;;;;;6352458;22;8962;-85
2021/12/08 02:17:51;;;;;;;;;85.40;72.00;;;;;;;;6350279;22;9627;-84
2021/12/08 02:20:21;;;;;;;;;83.75;68.50;;;;;;;;6350619;22;8733;-84
2021/12/08 02:22:46;;;;;;;;;87.00;74.50;;;;;;;;6350288;22;8693;-84
2021/12/08 02:25:14;;;;;;;;;80.00;66.00;;;;;;;;6352810;22;8853;-85
2021/12/08 02:27:39;;;;;;;;;82.80;67.20;;;;;;;;6377357;22;8681;-84
2021/12/08 02:31:09;;;;;;;;;88.67;76.33;;;;;;;;6352759;22;9548;-85
2021/12/08 02:47:42;;;;;;;;;86.00;71.00;;;;;;;;6352332;22;8729;-84
2021/12/08 02:50:07;;;;;;;;;84.50;69.25;;;;;;;;6350218;22;11526;-83
2021/12/08 02:52:36;;;;;;;;;86.00;71.50;;;;;;;;6352261;22;9617;-83
2021/12/08 02:55:05;;;;;;;;;87.40;75.00;;;;;;;;6352307;22;8741;-83
2021/12/08 02:57:30;;;;;;;;;82.00;66.50;;;;;;;;6352205;22;8725;-82
2021/12/08 02:59:56;;;;;;;;;84.00;70.00;;;;;;;;6352228;22;8847;-82
2021/12/08 03:02:21;;;;;;;;;78.00;64.00;;;;;;;;6352066;22;8768;-83
2021/12/08 03:04:46;;;;;;;;;81.50;67.25;;;;;;;;6376117;22;8757;-83
2021/12/08 03:07:12;;;;;;;;;78.00;64.25;;;;;;;;6352393;22;9589;-83
2021/12/08 03:09:37;;;;;;;;;86.00;71.00;;;;;;;;6352175;22;8725;-83
2021/12/08 03:18:32;;;;;;;;;;;;;;;;;;;;;
2021/12/08 03:43:57;;;;;;;;;;;;;;;;;;;;;
2021/12/08 06:51:24;;;;;;;;;;;;;;;;;;;;;
2021/12/08 06:53:58;;;;;;;;;73.80;62.20;;;;;;;;5933440;24;36463;-83
2021/12/08 06:56:55;;;;;;;;;;;;;;;;;;;;;
2021/12/08 07:08:47;;;;;;;;;82.00;67.75;;;;;;;;6020100;23;8753;-84
2021/12/08 07:14:03;;;;;;;;;80.50;67.25;;;;;;;;6119358;23;8777;-83
2021/12/08 07:16:41;;;;;;;;;83.80;68.20;;;;;;;;6154099;23;8779;-83
2021/12/08 07:19:31;;;;;;;;;;;;;;;;;;;;;
2021/12/08 07:22:27;;;;;;;;;;;;;;;;;;;;;
2021/12/08 07:46:05;;;;;;;;;94.00;81.75;;;;;;;;6388406;22;11547;-82
2021/12/08 07:49:02;;;;;;;;;90.75;77.75;;;;;;;;6368637;22;8747;-82
2021/12/08 07:51:51;;;;;;;;;76.00;62.00;;;;;;;;6424982;22;8754;-82
2021/12/08 07:54:37;;;;;;;;;75.25;63.00;;;;;;;;6448594;22;9635;-82
2021/12/08 07:57:04;;;;;;;;;83.75;67.25;;;;;;;;6391909;22;11418;-82
2021/12/08 07:59:30;;;;;;;;;89.25;73.00;;;;;;;;6448505;22;8706;-82
2021/12/08 08:01:58;;;;;;;;;85.20;69.40;;;;;;;;6447805;22;8694;-82
2021/12/08 08:04:25;;;;;;;;;75.40;62.80;;;;;;;;6419701;22;8757;-82
2021/12/08 08:10:19;;;;;;;;;87.75;73.00;;;;;;;;6347396;22;8734;-83
2021/12/08 08:13:43;;;;;;;;;87.20;72.20;;;;;;;;6414721;22;8782;-82
2021/12/08 08:15:47;;;;;;;;;91.20;77.00;;;;;;;;6409056;22;8792;-82
2021/12/08 08:18:21;;;;;;;;;84.00;68.25;;;;;;;;6448799;22;8750;-82
2021/12/08 08:20:49;;;;;;;;;78.75;64.75;;;;;;;;6447803;22;9735;-82
2021/12/08 08:23:25;;;;;;;;;;;;;;;;;;;;;
2021/12/08 08:25:52;;;;;;;;;79.00;65.00;;;;;;;;6446779;22;36061;-82
2021/12/08 08:28:30;;;;;;;;;70.25;59.00;;;;;;;;6419707;22;8779;-82
2021/12/08 08:31:02;;;;;;;;;80.25;66.00;;;;;;;;6447832;22;8750;-82
2021/12/08 08:33:28;;;;;;;;;84.00;69.60;;;;;;;;6448380;22;8746;-81
2021/12/08 08:36:04;;;;;;;;;73.20;60.00;;;;;;;;6447187;22;8777;-82
2021/12/08 08:45:16;;;;;;;;;;;;;;;;;;;;;
2021/12/08 09:00:56;;;;;;;;;43.25;41.00;;;;;;;;6193954;23;8741;-83
2021/12/08 09:03:32;;;;;;;;;65.80;54.40;;;;;;;;6249769;22;9108;-83
2021/12/08 09:06:18;;;;;;;;;70.75;57.75;;;;;;;;6410524;22;8727;-83
2021/12/08 09:08:54;;;;;;;;;82.75;68.00;;;;;;;;6413870;22;8739;-83
2021/12/08 09:21:17;;;;;;;;;81.75;66.50;;;;;;;;6178492;23;8908;-83
2021/12/08 09:23:48;;;;;;;;;68.40;57.40;;;;;;;;6374632;22;8728;-83
2021/12/08 09:26:15;;;;;;;;;67.80;56.40;;;;;;;;6416414;22;8751;-83
2021/12/08 09:28:52;;;;;;;;;62.25;53.00;;;;;;;;6414097;22;8728;-83
2021/12/08 09:31:28;;;;;;;;;65.80;56.40;;;;;;;;6414035;22;8736;-83
2021/12/08 09:34:07;;;;;;;;;57.75;49.25;;;;;;;;6414197;22;8805;-83
2021/12/08 09:36:36;;;;;;;;;68.40;57.60;;;;;;;;6413969;22;8728;-83
2021/12/08 09:39:09;;;;;;;;;76.75;63.25;;;;;;;;6416847;22;8731;-83
2021/12/08 09:41:41;;;;;;;;;74.25;61.25;;;;;;;;6414385;22;8688;-83
2021/12/08 09:44:15;;;;;;;;;74.00;61.50;;;;;;;;6416877;22;8755;-83
2021/12/08 09:46:42;;;;;;;;;78.00;63.25;;;;;;;;6447467;22;8757;-84
2021/12/08 09:49:08;;;;;;;;;86.50;72.00;;;;;;;;6448261;22;8829;-83
2021/12/08 09:51:34;;;;;;;;;80.50;65.50;;;;;;;;6448178;22;9697;-83
2021/12/08 09:54:00;;;;;;;;;82.50;68.00;;;;;;;;6448566;22;8863;-83
2021/12/08 09:56:26;;;;;;;;;66.75;54.50;;;;;;;;6448223;22;8788;-83
2021/12/08 09:58:53;;;;;;;;;84.20;69.80;;;;;;;;6448483;22;9458;-83
2021/12/08 10:01:20;;;;;;;;;84.00;69.25;;;;;;;;6419399;22;8742;-83
2021/12/08 10:03:47;;;;;;;;;78.20;63.40;;;;;;;;6448457;22;8662;-82
2021/12/08 10:06:13;;;;;;;;;84.33;70.33;;;;;;;;6419537;22;8753;-83
2021/12/08 10:08:43;;;;;;;;;83.40;68.00;;;;;;;;6448800;22;11504;-82
2021/12/08 10:11:12;;;;;;;;;86.40;72.40;;;;;;;;6448252;22;8758;-82
2021/12/08 10:13:37;;;;;;;;;80.75;65.50;;;;;;;;6448453;22;8784;-83
2021/12/08 10:16:03;;;;;;;;;83.40;68.20;;;;;;;;6445962;22;8739;-83
2021/12/08 10:18:42;;;;;;;;;;;;;;;;;;;;;
2021/12/08 10:21:08;;;;;;;;;86.40;73.80;;;;;;;;6447116;22;36545;-83
2021/12/08 10:23:37;;;;;;;;;85.75;71.25;;;;;;;;6419003;22;8877;-82
2021/12/08 10:26:05;;;;;;;;;120.80;120.20;;;;;;;;6447427;22;8726;-82
2021/12/08 10:28:39;;;;;;;;;71.60;59.60;;;;;;;;6447920;22;8734;-82
2021/12/08 10:40:48;;;;;;;;;;;;;;;;;;;;;
2021/12/08 10:46:31;;;;;;;;;78.60;63.00;;;;;;;;6278211;22;9706;-82
2021/12/08 10:49:18;;;;;;;;;87.80;76.00;;;;;;;;6396698;22;8675;-82
2021/12/08 10:55:06;;;;;;;;;;;;;;;;;;;;;
2021/12/08 10:57:38;;;;;;;;;85.00;71.40;;;;;;;;6445532;22;35871;-83
2021/12/08 11:00:08;;;;;;;;;72.25;59.50;;;;;;;;6447977;22;8722;-83
2021/12/08 11:03:09;;;;;;;;;83.00;69.20;;;;;;;;6447733;22;8770;-83
2021/12/08 11:05:49;;;;;;;;;77.75;64.00;;;;;;;;6420184;22;8808;-82
2021/12/08 11:08:16;;;;;;;;;82.00;67.20;;;;;;;;6448285;22;8762;-83
2021/12/08 11:10:41;;;;;;;;;78.75;64.75;;;;;;;;6447831;22;8738;-82
2021/12/08 11:13:24;;;;;;;;;85.67;72.33;;;;;;;;6448477;22;10624;-83
2021/12/08 11:16:12;;;;;;;;;70.50;59.50;;;;;;;;6447631;22;8794;-84
2021/12/08 11:19:09;;;;;;;;;78.00;64.40;;;;;;;;6422280;22;8727;-83
2021/12/08 11:21:54;;;;;;;;;80.00;65.00;;;;;;;;6418848;22;8730;-83
2021/12/08 11:27:20;;;;;;;;;;;;;;;;;;;;;
2021/12/08 11:30:21;;;;;;;;;;;;;;;;;;;;;
2021/12/08 11:36:38;;;;;;;;;;;;;;;;;;;;;
2021/12/08 11:39:26;;;;;;;;;70.60;57.80;;;;;;;;6387910;22;36450;-82
2021/12/08 11:44:49;;;;;;;;;70.20;58.00;;;;;;;;6396228;22;8742;-82
2021/12/08 11:47:22;;;;;;;;;67.80;56.40;;;;;;;;6447450;22;8889;-80
2021/12/08 11:49:56;;;;;;;;;66.80;55.60;;;;;;;;6447729;22;8929;-82
2021/12/08 11:55:23;;;;;;;;;84.80;71.20;;;;;;;;6430215;22;8742;-84
2021/12/08 12:01:39;;;;;;;;;;;;;;;;;;;;;
2021/12/08 12:07:46;;;;;;;;;;;;;;;;;;;;;
2021/12/08 12:26:23;;;;;;;;;74.00;61.60;;;;;;;;6105245;23;8804;-84
2021/12/08 12:29:25;;;;;;;;;83.25;69.50;;;;;;;;6105123;23;8757;-82
2021/12/08 12:31:56;;;;;;;;;82.00;67.20;;;;;;;;6214743;22;8739;-80
2021/12/08 12:34:24;;;;;;;;;72.40;60.00;;;;;;;;6383311;22;8783;-80
2021/12/08 12:36:56;;;;;;;;;68.00;56.25;;;;;;;;6447450;22;8730;-84
2021/12/08 12:39:24;;;;;;;;;79.50;64.50;;;;;;;;6447564;22;11445;-80
2021/12/08 12:42:11;;;;;;;;;77.00;64.00;;;;;;;;6447379;22;8731;-81
2021/12/08 12:44:44;;;;;;;;;64.50;54.50;;;;;;;;6418258;22;8742;-81
2021/12/08 12:47:25;;;;;;;;;75.20;61.40;;;;;;;;6417521;22;8746;-81
2021/12/08 12:50:02;;;;;;;;;68.25;56.75;;;;;;;;6447433;22;9644;-80
2021/12/08 12:52:43;;;;;;;;;79.80;66.20;;;;;;;;6419162;22;8845;-81
2021/12/08 12:55:27;;;;;;;;;;;;;;;;;;;;;
2021/12/08 12:58:20;;;;;;;;;73.00;60.00;;;;;;;;6446752;22;36494;-82
2021/12/08 13:00:49;;;;;;;;;91.80;84.20;;;;;;;;6448291;22;8719;-82
2021/12/08 13:03:42;;;;;;;;;62.50;52.50;;;;;;;;6448705;22;8780;-81
2021/12/08 13:06:08;;;;;;;;;64.40;54.40;;;;;;;;6419491;22;8723;-81
2021/12/08 13:08:47;;;;;;;;;71.50;59.00;;;;;;;;6448400;22;8723;-81
2021/12/08 13:11:21;;;;;;;;;74.50;61.50;;;;;;;;6419780;22;8758;-81
2021/12/08 13:13:52;;;;;;;;;56.50;48.25;;;;;;;;6419395;22;9369;-81
2021/12/08 13:16:22;;;;;;;;;68.25;57.00;;;;;;;;6448721;22;8854;-81
2021/12/08 13:18:58;;;;;;;;;69.75;58.00;;;;;;;;6448649;22;8780;-80
2021/12/08 13:21:42;;;;;;;;;61.75;52.75;;;;;;;;6448989;22;8750;-81
2021/12/08 13:24:44;;;;;;;;;46.25;41.00;;;;;;;;6419376;22;8852;-80
2021/12/08 13:27:13;;;;;;;;;61.60;52.60;;;;;;;;6261374;22;8745;-81
2021/12/08 13:29:41;;;;;;;;;61.20;52.60;;;;;;;;6418185;22;8734;-81
2021/12/08 13:32:15;;;;;;;;;58.25;50.00;;;;;;;;6448811;22;8834;-80
2021/12/08 13:35:01;;;;;;;;;74.50;62.00;;;;;;;;6448755;22;8766;-81
2021/12/08 13:37:34;;;;;;;;;68.80;55.80;;;;;;;;6447338;22;8735;-82
2021/12/08 13:40:26;;;;;;;;;66.75;56.00;;;;;;;;6448816;22;8785;-82
2021/12/08 13:43:05;;;;;;;;;88.20;80.40;;;;;;;;6446719;22;9716;-81
2021/12/08 13:46:06;;;;;;;;;;;;;;;;;;;;;
2021/12/08 13:57:43;;;;;;;;;75.00;61.20;;;;;;;;6421995;22;8717;-82
2021/12/08 14:00:24;;;;;;;;;78.20;65.60;;;;;;;;6448654;22;9561;-82
2021/12/08 14:02:55;;;;;;;;;80.25;66.25;;;;;;;;6418610;22;8746;-81
2021/12/08 14:05:29;;;;;;;;;66.60;56.00;;;;;;;;6448743;22;8723;-80
2021/12/08 14:07:56;;;;;;;;;67.00;56.00;;;;;;;;6448206;22;9755;-82
2021/12/08 14:10:31;;;;;;;;;64.40;53.40;;;;;;;;6448159;22;8765;-81
2021/12/08 14:12:56;;;;;;;;;66.00;55.00;;;;;;;;6448337;22;8754;-79
2021/12/08 14:15:33;;;;;;;;;67.50;56.50;;;;;;;;6419354;22;8780;-80
2021/12/08 14:18:12;;;;;;;;;72.50;59.50;;;;;;;;6448887;22;8831;-80
2021/12/08 14:20:38;;;;;;;;;59.40;50.60;;;;;;;;6448444;22;8671;-80
2021/12/08 14:23:03;;;;;;;;;69.50;56.75;;;;;;;;6419582;22;8900;-80
2021/12/08 14:25:30;;;;;;;;;64.80;54.80;;;;;;;;6448634;22;8730;-80
2021/12/08 14:27:55;;;;;;;;;69.40;58.40;;;;;;;;6448687;22;8752;-79
2021/12/08 14:30:21;;;;;;;;;76.25;63.25;;;;;;;;6448157;22;8866;-80
2021/12/08 14:32:58;;;;;;;;;70.75;58.75;;;;;;;;6448340;22;8765;-78
2021/12/08 14:35:23;;;;;;;;;80.00;65.75;;;;;;;;6448514;22;9541;-78
2021/12/08 14:37:58;;;;;;;;;68.00;57.00;;;;;;;;6447693;22;8757;-80
2021/12/08 14:40:23;;;;;;;;;71.50;59.25;;;;;;;;6448641;22;8748;-78
2021/12/08 14:42:49;;;;;;;;;66.50;56.25;;;;;;;;6448646;22;8844;-78
2021/12/08 14:45:14;;;;;;;;;60.00;49.00;;;;;;;;6448558;22;8762;-79
2021/12/08 14:47:43;;;;;;;;;63.00;53.50;;;;;;;;6448004;22;8762;-78
2021/12/08 14:50:10;;;;;;;;;66.20;55.40;;;;;;;;6448108;22;8707;-79
2021/12/08 14:52:38;;;;;;;;;77.25;64.25;;;;;;;;6448617;22;8706;-79
2021/12/08 14:55:04;;;;;;;;;71.50;59.50;;;;;;;;6448379;22;8757;-79
2021/12/08 14:57:31;;;;;;;;;80.75;66.50;;;;;;;;6448824;22;8723;-78
2021/12/08 15:00:00;;;;;;;;;72.60;60.20;;;;;;;;6448271;22;10315;-79
2021/12/08 15:02:44;;;;;;;;;80.25;63.75;;;;;;;;6448788;22;8830;-79
2021/12/08 15:05:11;;;;;;;;;71.25;59.50;;;;;;;;6418686;22;8730;-78
2021/12/08 15:07:37;;;;;;;;;72.50;58.00;;;;;;;;6448265;22;8776;-78
2021/12/08 15:10:10;;;;;;;;;68.80;57.80;;;;;;;;6448109;22;8718;-78
2021/12/08 15:12:37;;;;;;;;;69.00;57.50;;;;;;;;6447222;22;8711;-77
2021/12/08 15:15:13;;;;;;;;;78.50;65.50;;;;;;;;6447930;22;8726;-78
2021/12/08 15:17:39;;;;;;;;;70.25;59.25;;;;;;;;6448726;22;8837;-78
2021/12/08 15:20:05;;;;;;;;;78.25;65.00;;;;;;;;6447667;22;8757;-78
2021/12/08 15:22:39;;;;;;;;;79.00;64.80;;;;;;;;6418748;22;8758;-79
2021/12/08 15:25:06;;;;;;;;;73.00;59.75;;;;;;;;6447717;22;8795;-79
2021/12/08 15:27:35;;;;;;;;;83.50;71.00;;;;;;;;6447856;22;8838;-79
2021/12/08 15:30:00;;;;;;;;;62.00;52.50;;;;;;;;6447627;22;8745;-79
2021/12/08 15:32:26;;;;;;;;;60.00;50.50;;;;;;;;6448500;22;8746;-79
2021/12/08 15:35:01;;;;;;;;;64.00;54.00;;;;;;;;6447568;22;8797;-78
2021/12/08 15:37:31;;;;;;;;;68.00;57.20;;;;;;;;6448593;22;8742;-79
2021/12/08 15:39:57;;;;;;;;;61.50;51.75;;;;;;;;6418831;22;8753;-78
2021/12/08 15:42:23;;;;;;;;;70.67;59.33;;;;;;;;6419309;22;8770;-79
2021/12/08 15:44:54;;;;;;;;;79.50;65.50;;;;;;;;6447556;22;11556;-79
2021/12/08 15:47:19;;;;;;;;;66.25;55.75;;;;;;;;6448370;22;8781;-79
2021/12/08 15:49:45;;;;;;;;;64.67;54.00;;;;;;;;6448047;22;8773;-79
2021/12/08 15:52:17;;;;;;;;;64.50;54.50;;;;;;;;6448356;22;11501;-79
2021/12/08 15:54:43;;;;;;;;;83.20;71.20;;;;;;;;6418295;22;8755;-79
2021/12/08 15:57:10;;;;;;;;;67.00;56.50;;;;;;;;6448159;22;8816;-79
2021/12/08 15:59:41;;;;;;;;;71.25;59.25;;;;;;;;6447973;22;8734;-79
2021/12/08 16:02:15;;;;;;;;;78.40;65.40;;;;;;;;6448552;22;8785;-79
2021/12/08 16:04:51;;;;;;;;;71.50;59.00;;;;;;;;6448046;22;8746;-79
2021/12/08 16:07:22;;;;;;;;;87.20;76.80;;;;;;;;6448381;22;8726;-79
2021/12/08 16:09:48;;;;;;;;;77.80;64.80;;;;;;;;6447698;22;8731;-79
2021/12/08 16:12:13;;;;;;;;;81.67;68.00;;;;;;;;6419158;22;8773;-79
2021/12/08 16:14:58;;;;;;;;;58.25;49.00;;;;;;;;6446734;22;10272;-78
2021/12/08 16:17:26;;;;;;;;;54.00;46.25;;;;;;;;6448005;22;8727;-79
2021/12/08 16:20:02;;;;;;;;;75.25;61.75;;;;;;;;6448369;22;8726;-79
2021/12/08 16:22:27;;;;;;;;;133.00;131.80;;;;;;;;6447527;22;8791;-78
2021/12/08 16:24:53;;;;;;;;;81.00;67.33;;;;;;;;6448312;22;8735;-79
2021/12/08 16:27:19;;;;;;;;;73.00;60.75;;;;;;;;6447711;22;9357;-79
2021/12/08 16:29:46;;;;;;;;;72.20;59.20;;;;;;;;6447295;22;8733;-79
2021/12/08 16:32:12;;;;;;;;;73.00;60.80;;;;;;;;6447789;22;8746;-79
2021/12/08 16:34:38;;;;;;;;;66.75;55.75;;;;;;;;6447505;22;8762;-79
2021/12/08 16:37:04;;;;;;;;;77.33;63.67;;;;;;;;6447709;22;8793;-78
2021/12/08 16:39:41;;;;;;;;;77.75;63.75;;;;;;;;6447689;22;8710;-79
2021/12/08 16:44:50;;;;;;;;;64.00;54.40;;;;;;;;6447565;22;8739;-79
2021/12/08 16:47:15;;;;;;;;;142.20;142.20;;;;;;;;6447260;22;8801;-79
2021/12/08 16:49:40;;;;;;;;;48.00;42.75;;;;;;;;6447392;22;8762;-79
2021/12/08 16:52:06;;;;;;;;;66.75;55.75;;;;;;;;6447739;22;8742;-80
2021/12/08 16:54:31;;;;;;;;;107.00;104.20;;;;;;;;6447072;22;8936;-80
2021/12/08 16:56:57;;;;;;;;;93.50;87.50;;;;;;;;6447452;22;8813;-81
2021/12/08 16:59:22;;;;;;;;;89.50;81.25;;;;;;;;6446805;22;11544;-83
2021/12/08 17:01:48;;;;;;;;;72.75;59.75;;;;;;;;6447612;22;8780;-83
2021/12/08 17:04:13;;;;;;;;;80.50;65.25;;;;;;;;6447342;22;8873;-82
2021/12/08 17:06:40;;;;;;;;;82.25;67.75;;;;;;;;6446749;22;11486;-82
2021/12/08 17:09:06;;;;;;;;;92.80;84.80;;;;;;;;6418323;22;8850;-83
2021/12/08 17:11:32;;;;;;;;;76.00;63.20;;;;;;;;6446747;22;9712;-80
2021/12/08 17:13:58;;;;;;;;;74.80;61.60;;;;;;;;6446781;22;8762;-80
2021/12/08 17:16:24;;;;;;;;;80.75;66.00;;;;;;;;6416925;22;8754;-81
2021/12/08 17:18:50;;;;;;;;;71.80;59.80;;;;;;;;6418330;22;11495;-80
2021/12/08 17:21:15;;;;;;;;;84.25;69.75;;;;;;;;6450100;22;8797;-81
2021/12/08 17:23:41;;;;;;;;;82.67;67.00;;;;;;;;6445937;22;8801;-80
2021/12/08 17:26:06;;;;;;;;;80.25;64.25;;;;;;;;6417968;22;8777;-81
2021/12/08 17:28:32;;;;;;;;;78.25;64.50;;;;;;;;6447188;22;8788;-80
2021/12/08 17:30:58;;;;;;;;;75.40;62.40;;;;;;;;6417521;22;8734;-81
2021/12/08 17:33:23;;;;;;;;;76.60;62.80;;;;;;;;6447258;22;8796;-81
2021/12/08 17:35:49;;;;;;;;;70.25;57.75;;;;;;;;6446839;22;8730;-80
2021/12/08 17:38:14;;;;;;;;;87.75;75.25;;;;;;;;6448113;22;8754;-81
2021/12/08 17:40:40;;;;;;;;;86.75;72.00;;;;;;;;6448441;22;8754;-83
2021/12/08 17:43:05;;;;;;;;;81.75;67.00;;;;;;;;6448802;22;8876;-81
2021/12/08 17:45:32;;;;;;;;;87.50;74.00;;;;;;;;6448357;22;8849;-81
2021/12/08 17:47:57;;;;;;;;;80.60;66.40;;;;;;;;6447844;22;8754;-80
2021/12/08 17:50:23;;;;;;;;;64.75;55.00;;;;;;;;6419316;22;8835;-81
2021/12/08 17:52:49;;;;;;;;;83.75;69.00;;;;;;;;6448302;22;9631;-81
2021/12/08 17:55:15;;;;;;;;;68.50;56.75;;;;;;;;6448305;22;8730;-81
2021/12/08 17:57:40;;;;;;;;;58.40;50.20;;;;;;;;6419006;22;8746;-81
2021/12/08 18:00:07;;;;;;;;;78.50;65.00;;;;;;;;6447819;22;8818;-81
2021/12/08 18:02:33;;;;;;;;;86.25;70.50;;;;;;;;6448009;22;8754;-82
2021/12/08 18:04:58;;;;;;;;;78.00;64.00;;;;;;;;6448008;22;8858;-80
2021/12/08 18:07:24;;;;;;;;;72.00;59.00;;;;;;;;6418941;22;8858;-81
2021/12/08 18:09:49;;;;;;;;;69.50;57.50;;;;;;;;6448269;22;8750;-81
2021/12/08 18:12:15;;;;;;;;;70.50;59.50;;;;;;;;6448234;22;8734;-81
2021/12/08 18:14:40;;;;;;;;;82.67;66.67;;;;;;;;6447994;22;8788;-81
2021/12/08 18:17:07;;;;;;;;;78.00;63.75;;;;;;;;6448742;22;8778;-81
2021/12/08 18:19:33;;;;;;;;;77.60;63.80;;;;;;;;6448308;22;8754;-80
2021/12/08 18:22:02;;;;;;;;;70.50;58.25;;;;;;;;6448460;22;8770;-81
2021/12/08 18:24:27;;;;;;;;;76.60;63.60;;;;;;;;6447721;22;8734;-81
2021/12/08 18:26:52;;;;;;;;;75.00;61.25;;;;;;;;6448058;22;8739;-81
2021/12/08 18:29:18;;;;;;;;;85.25;68.75;;;;;;;;6448130;22;8762;-79
2021/12/08 18:31:43;;;;;;;;;64.67;54.33;;;;;;;;6419055;22;8823;-83
2021/12/08 18:34:13;;;;;;;;;67.50;57.00;;;;;;;;6448597;22;8857;-80
2021/12/08 18:36:40;;;;;;;;;72.00;59.75;;;;;;;;6419225;22;8753;-81
2021/12/08 18:39:07;;;;;;;;;80.25;65.75;;;;;;;;6448657;22;8718;-81
2021/12/08 18:41:33;;;;;;;;;75.20;61.80;;;;;;;;6448637;22;8731;-80
2021/12/08 18:43:58;;;;;;;;;70.67;58.33;;;;;;;;6448174;22;8754;-80
2021/12/08 18:46:24;;;;;;;;;71.80;60.20;;;;;;;;6448179;22;8852;-80
2021/12/08 18:48:50;;;;;;;;;68.00;56.75;;;;;;;;6448104;22;8754;-82
2021/12/08 18:51:18;;;;;;;;;79.50;65.50;;;;;;;;6448001;22;8722;-80
2021/12/08 18:53:45;;;;;;;;;67.20;56.80;;;;;;;;6418542;22;8775;-80
2021/12/08 18:56:10;;;;;;;;;80.20;66.00;;;;;;;;6448577;22;8819;-80
2021/12/08 18:58:36;;;;;;;;;73.67;61.33;;;;;;;;6448458;22;8742;-80
2021/12/08 19:01:03;;;;;;;;;84.67;70.00;;;;;;;;6447831;22;8754;-80
2021/12/08 19:03:29;;;;;;;;;81.60;66.40;;;;;;;;6448317;22;10281;-80
2021/12/08 19:05:56;;;;;;;;;84.25;70.25;;;;;;;;6448139;22;8762;-80
2021/12/08 19:08:23;;;;;;;;;80.75;63.75;;;;;;;;6448560;22;8738;-80
2021/12/08 19:10:51;;;;;;;;;82.33;67.33;;;;;;;;6447761;22;8731;-81
2021/12/08 19:13:17;;;;;;;;;79.75;65.50;;;;;;;;6447735;22;11545;-80
2021/12/08 19:15:44;;;;;;;;;85.00;68.20;;;;;;;;6447287;22;11398;-80
2021/12/08 19:18:09;;;;;;;;;75.40;63.20;;;;;;;;6448743;22;8760;-80
2021/12/08 19:20:35;;;;;;;;;84.50;68.50;;;;;;;;6448164;22;8881;-80
2021/12/08 19:23:06;;;;;;;;;70.25;59.25;;;;;;;;6448131;22;9921;-81
2021/12/08 19:25:32;;;;;;;;;72.80;59.20;;;;;;;;6448622;22;9677;-80
2021/12/08 19:27:57;;;;;;;;;72.50;60.25;;;;;;;;6448665;22;8788;-80
2021/12/08 19:30:23;;;;;;;;;78.50;64.00;;;;;;;;6448647;22;8787;-80
2021/12/08 19:32:49;;;;;;;;;73.25;60.25;;;;;;;;6448038;22;8793;-80
2021/12/08 19:35:14;;;;;;;;;71.40;58.60;;;;;;;;6419226;22;8968;-80
2021/12/08 19:37:40;;;;;;;;;77.67;61.67;;;;;;;;6447609;22;8730;-79
2021/12/08 19:40:07;;;;;;;;;70.33;58.33;;;;;;;;6448291;22;8872;-79
2021/12/08 19:42:32;;;;;;;;;83.20;68.40;;;;;;;;6447778;22;8726;-79
2021/12/08 19:45:00;;;;;;;;;82.25;67.25;;;;;;;;6447615;22;8770;-80
2021/12/08 19:47:25;;;;;;;;;80.80;64.40;;;;;;;;6448028;22;8777;-82
2021/12/08 19:49:50;;;;;;;;;68.25;58.25;;;;;;;;6448056;22;8762;-80
2021/12/08 19:52:16;;;;;;;;;79.75;63.00;;;;;;;;6448451;22;8734;-79
2021/12/08 19:54:46;;;;;;;;;74.67;60.67;;;;;;;;6447999;22;8867;-78
2021/12/08 19:57:11;;;;;;;;;54.75;47.25;;;;;;;;6419110;22;8766;-79
2021/12/08 19:59:36;;;;;;;;;79.00;63.75;;;;;;;;6447905;22;11666;-79
2021/12/08 20:02:02;;;;;;;;;81.00;66.00;;;;;;;;6447040;22;9580;-80
2021/12/08 20:04:28;;;;;;;;;71.33;58.00;;;;;;;;6448626;22;8760;-80
2021/12/08 20:06:54;;;;;;;;;74.50;60.50;;;;;;;;6447888;22;8900;-80
2021/12/08 20:09:19;;;;;;;;;71.50;59.75;;;;;;;;6448576;22;8730;-80
2021/12/08 20:11:47;;;;;;;;;75.25;62.25;;;;;;;;6447514;22;8735;-80
2021/12/08 20:14:13;;;;;;;;;78.00;63.25;;;;;;;;6447800;22;8754;-80
2021/12/08 20:16:38;;;;;;;;;78.00;64.50;;;;;;;;6418594;22;8798;-79
2021/12/08 20:19:03;;;;;;;;;71.25;58.50;;;;;;;;6448302;22;8750;-79
2021/12/08 20:21:29;;;;;;;;;80.25;65.75;;;;;;;;6418955;22;8790;-79
2021/12/08 20:23:57;;;;;;;;;67.75;57.50;;;;;;;;6447884;22;8765;-79
2021/12/08 20:26:24;;;;;;;;;74.50;62.00;;;;;;;;6448355;22;8746;-80
2021/12/08 20:28:51;;;;;;;;;67.50;56.50;;;;;;;;6448050;22;8746;-79
2021/12/08 20:31:20;;;;;;;;;73.50;61.50;;;;;;;;6447657;22;9633;-79
2021/12/08 20:33:46;;;;;;;;;67.67;57.33;;;;;;;;6418511;22;8773;-79
2021/12/08 20:36:12;;;;;;;;;72.50;59.75;;;;;;;;6448183;22;10113;-80
2021/12/08 20:38:39;;;;;;;;;75.00;63.00;;;;;;;;6447493;22;8765;-80
2021/12/08 20:41:06;;;;;;;;;66.50;54.75;;;;;;;;6448226;22;8735;-80
2021/12/08 20:43:32;;;;;;;;;74.80;61.40;;;;;;;;6418729;22;9140;-81
2021/12/08 20:45:57;;;;;;;;;62.75;53.50;;;;;;;;6447123;22;8784;-80
2021/12/08 20:48:23;;;;;;;;;73.50;59.50;;;;;;;;6418769;22;8777;-80
2021/12/08 20:50:48;;;;;;;;;65.00;55.67;;;;;;;;6447739;22;8897;-79
2021/12/08 20:53:14;;;;;;;;;76.25;63.00;;;;;;;;6418237;22;8921;-80
2021/12/08 20:55:39;;;;;;;;;73.25;60.25;;;;;;;;6418587;22;8774;-79
2021/12/08 20:58:06;;;;;;;;;60.50;50.25;;;;;;;;6447733;22;8726;-79
2021/12/08 21:00:41;;;;;;;;;80.60;66.20;;;;;;;;6447555;22;8711;-79
2021/12/08 21:03:08;;;;;;;;;77.60;64.00;;;;;;;;6447818;22;8783;-79
2021/12/08 21:05:33;;;;;;;;;65.40;56.00;;;;;;;;6446773;22;8859;-81
2021/12/08 21:07:59;;;;;;;;;70.33;58.67;;;;;;;;6447220;22;8747;-81
2021/12/08 21:10:25;;;;;;;;;74.00;61.50;;;;;;;;6418425;22;8746;-81
2021/12/08 21:12:51;;;;;;;;;67.50;56.75;;;;;;;;6446985;22;8907;-81
2021/12/08 21:15:19;;;;;;;;;63.25;53.75;;;;;;;;6448475;22;8714;-81
2021/12/08 21:17:45;;;;;;;;;75.75;63.50;;;;;;;;6448335;22;12893;-81
2021/12/08 21:20:12;;;;;;;;;74.00;61.20;;;;;;;;6448198;22;8711;-82
2021/12/08 21:22:38;;;;;;;;;81.40;67.00;;;;;;;;6448369;22;8841;-81
2021/12/08 21:25:05;;;;;;;;;68.00;57.25;;;;;;;;6448331;22;8761;-81
2021/12/08 21:27:30;;;;;;;;;68.50;58.25;;;;;;;;6391683;22;8698;-81
2021/12/08 21:29:56;;;;;;;;;62.25;52.75;;;;;;;;6448291;22;9477;-81
2021/12/08 21:32:21;;;;;;;;;65.75;55.75;;;;;;;;6419298;22;8758;-81
2021/12/08 21:34:49;;;;;;;;;70.50;59.75;;;;;;;;6448373;22;8794;-81
2021/12/08 21:37:18;;;;;;;;;69.50;58.50;;;;;;;;6448500;22;8718;-80
2021/12/08 21:39:44;;;;;;;;;87.67;71.67;;;;;;;;6448176;22;8710;-80
2021/12/08 21:42:09;;;;;;;;;73.50;60.50;;;;;;;;6448670;22;11440;-81
2021/12/08 21:44:37;;;;;;;;;64.00;54.25;;;;;;;;6448155;22;8786;-80
2021/12/08 21:47:03;;;;;;;;;86.20;69.20;;;;;;;;6448219;22;9631;-80
2021/12/08 21:49:28;;;;;;;;;74.25;61.25;;;;;;;;6448284;22;8784;-80
2021/12/08 21:51:54;;;;;;;;;81.67;67.00;;;;;;;;6418345;22;11488;-81
2021/12/08 21:54:19;;;;;;;;;76.25;63.25;;;;;;;;6448157;22;8942;-80